Artois, CA

12:07 PM PDT on April 19, 2015 (GMT -0700)
Booth Farms | | Change Station
CLOSE
Current Station
Personal Weather Station
Location: Orland, CA
Elevation: 217 ft
Nearby Weather Stations

Elev 217 ft 39.74 °N, 122.14 °W | Updated 8 minutes ago

Partly Cloudy
Partly Cloudy
82.9 °F
Feels Like 81 °F
N
8.9
Wind Variable Wind from NNW

Today
High -- | Low -- °F
--% Chance of Precip.
Yesterday
High -- | Low -- °F
Precip. -- in
6:25 AM 7:50 PM
New Moon, 1% visible
Pressure 29.90 in
Visibility 40.0 miles
Clouds Scattered Clouds 25000 ft
Heat Index 81 °F
Dew Point 42 °F
Humidity 24%
Rainfall 0.00 in
Snow Depth Not available.
UV 7 out of 12
Pollen 10.60 out of 12
Air Quality Not available.
Flu Activity Sporadic
METAR KCIC 191850Z 28006KT 40SM SCT250 26/07 A2990

More Conditions Fewer Conditions

Pressure 29.90 in
Visibility 40.0 miles
Clouds Scattered Clouds 25000 ft
Heat Index 81 °F
Dew Point 42 °F
Humidity 24%
Rainfall 0.00 in
Snow Depth Not available.
UV 7 out of 12
Pollen 10.60 out of 12
Air Quality Not available.
Flu Activity Sporadic
METAR KCIC 191850Z 28006KT 40SM SCT250 26/07 A2990

More Conditions Fewer Conditions

10-Day Weather Forecast

Almanac

Astronomy

Apr. 19, 2015 Rise Set
Actual Time
Civil Twilight
Nautical Twilight
Astronomical Twilight
Moon
Length of Visible Light
Length of Day
Tomorrow will be .
, % of the Moon is Illuminated

Today's Extremes

State Highs State Lows

Community

WunderPhotos

Upload Photos

1,814,915 photos uploaded!

WunderBlogs® & News

Nearby

Air Quality

  Air Quality AQ Index Pollutant
Not available.

Snow Depth

Station Depth Elevation

Earthquake Activity

City Distance Mag. Time & Date
Minimum magnitude displayed is 2.5.

Coastal Water Temperatures

Place Temperature

Stations

Nearby Weather Stations

Station Location Temp. Windchill Dew Point Humidity Wind Precip. Elev Updated Type